x

Central Caribbean - 210 Nm Sse Of Kingston, Jamaica (42058) Wave Buoy

9:50 - Mon 27th Feb 2017 All times are EST. -5 hours from GMT.

  • Sig Wave height 5.2ft
  • Swell Direction
  • Peak Period 6s
  • Average Period 5s
  • Wind
    20mph, 25mph gusts
  • Sea Temp 80°f
  • Aire Temp 80°f
  • Sea Pressure 1017.1mb
  • Central Caribbean - 210 Nm Sse Of Kingston, Jamaica
  • Central Caribbean - 210 Nm Sse Of Kingston, Jamaica

More Historic Weather Station data

Upgrade to MSW Pro to gain access to the past 30 days of data for over 8000 Wavebouys and Weather Stations around the globe.

Join Pro

Comparision Forecast

View Surf forecast
   
lun 02/27 9:50 5ft 6s 5s 20 25 mph 1017.1mb 80f 80f
8:50 5ft 6s 5s 20 25 mph 1016.7mb 80f 81f
7:50 5ft 6s 5s 20 22 mph 1016.1mb 80f 80f
6:50 5ft 6s 5s 20 25 mph 1015.5mb 80f 80f
5:50 5ft 6s 5s 20 22 mph 1014.9mb 80f 80f
4:50 5ft 6s 5s 20 22 mph 1014.4mb 80f 80f
3:50 4.5ft 5s 5s 18 20 mph 1014.2mb 80f 80f
2:50 4.5ft 6s 5s 18 22 mph 1014.1mb 80f 80f
1:50 4.5ft 6s 5s 18 22 mph 1014.6mb 80f 80f
12:50 4.5ft 6s 5s 20 25 mph 1014.9mb 80f 80f
dom 02/26 11:50 4.5ft 6s 5s 20 25 mph 1015.4mb 80f 80f
10:50 4.5ft 6s 5s 20 25 mph 1015.7mb 80f 80f
9:50 4ft 6s 4s 18 20 mph 1015.7mb 80f 80f
8:50 4.5ft 6s 5s 18 22 mph 1015.4mb 80f 80f
7:50 4.5ft 5s 5s 18 20 mph 1014.8mb 80f 80f
6:50 4.5ft 6s 5s 18 20 mph 1014.3mb 80f 80f
5:50 4.5ft 6s 5s 18 20 mph 1013.9mb 81f 80f
4:50 4.5ft 6s 5s 16 20 mph 1013.7mb 81f 80f
3:50 4ft 6s 5s 16 18 mph 1013.7mb 81f 80f
2:50 4.5ft 6s 5s 13 16 mph 1013.8mb 81f 80f
1:50 4.5ft 6s 5s 16 18 mph 1014.4mb 81f 80f
12:50 4.5ft 5s 5s 16 18 mph 1015.2mb 81f 80f
11:50 4.5ft 5s 5s 16 18 mph 1015.9mb 81f 80f
10:50 4ft 6s 5s 16 18 mph 1016.5mb 80f 80f
9:50 4.5ft 5s 5s 13 18 mph 1016.5mb 80f 80f
8:50 4ft 5s 5s 18 22 mph 1016.1mb 80f 80f
7:50 3.5ft 5s 4s 18 22 mph 1015.5mb 80f 80f
6:50 3.5ft 5s 5s 18 20 mph 1014.9mb 80f 80f
5:50 3.5ft 5s 4s 16 18 mph 1014.3mb 80f 79f
4:50 3.5ft 5s 4s 16 18 mph 1013.7mb 80f 79f
3:50 3.5ft 5s 4s 13 18 mph 1013.4mb 80f 79f
2:50 3.5ft 5s 4s 16 18 mph 1013.2mb 81f 79f
1:50 3.5ft 6s 4s 16 18 mph 1013.3mb 81f 80f
12:50 3.5ft 5s 4s 16 18 mph 1013.6mb 81f 80f
sáb 02/25 11:50 3.5ft 5s 4s 16 18 mph 1014.1mb 81f 80f
10:50 3.5ft 6s 4s 16 20 mph 1014.6mb 81f 80f
9:50 3.5ft 6s 4s 16 18 mph 1014.5mb 81f 80f
8:50 3.5ft 5s 4s 16 20 mph 1014.1mb 81f 80f
7:50 3.5ft 5s 4s 16 18 mph 1013.4mb 81f 80f
6:50 3.5ft 6s 5s 13 16 mph 1012.9mb 81f 80f
5:50 3.5ft 5s 5s 13 16 mph 1012.3mb 81f 80f
4:50 3ft 6s 5s 13
mph
1012.1mb 81f 80f
3:50 3ft 6s 5s 11 13 mph 1012mb 81f 80f
2:50 3ft 5s 5s 11 13 mph 1012.6mb 81f 80f
1:50 3ft 5s 4s 11 13 mph 1013.1mb 81f 80f
12:50 2.5ft 5s 5s 11 13 mph 1013.7mb 81f 80f
11:50 2.5ft 5s 4s 9 13 mph 1014.8mb 81f 80f
10:50 2.5ft 5s 4s 9 11 mph 1015.4mb 81f 80f
9:50 2.5ft 4s 4s 9
mph
1015.7mb 81f 80f
8:50 2.5ft 5s 5s 9 11 mph 1015.4mb 81f 80f
7:50 3ft 5s 5s 7 9 mph 1014.9mb 81f 80f
6:50 3ft 5s 5s 9 11 mph 1014mb 81f 80f
5:50 2.5ft 5s 5s 11
mph
1013.2mb 80f 79f
4:50 2.5ft 5s 5s 9 11 mph 1012.5mb 81f 79f
3:50 2.5ft 5s 4s 11
mph
1012.2mb 81f 79f
2:50 2.5ft 5s 5s 11 13 mph 1012mb 81f 80f
1:50 2.5ft 5s 5s 11 13 mph 1012.4mb 81f 79f
12:50 2.5ft 5s 5s 9 11 mph 1013.1mb 81f 79f
vie 02/24 11:50 2.5ft 9s 5s 11
mph
1013.4mb 81f 79f
10:50 2.5ft 5s 5s 9 11 mph 1013.4mb 81f 79f
9:50 2.5ft 5s 5s 9 11 mph 1013.1mb 81f 80f
8:50 2.5ft 5s 5s 7 9 mph 1012.8mb 81f 80f
7:50 2.5ft 5s 5s 9 11 mph 1011.9mb 81f 80f
6:50 2.5ft 4s 5s 11
mph
1011.2mb 81f 80f
5:50 2.5ft 5s 4s 7 9 mph 1011.1mb 82f 80f
4:50 2.5ft 4s 4s 4 7 mph 1011.2mb 82f 80f
3:50 2.5ft 4s 4s 7 9 mph 1011mb 82f 80f
2:50 2.5ft 4s 4s 9 11 mph 1011mb 82f 80f
1:50 2.5ft 5s 4s 11 13 mph 1011.3mb 82f 80f
12:50 2ft 4s 4s 9 11 mph 1012.1mb 82f 80f
11:50 2ft 4s 4s 11
mph
1012.9mb 81f 80f
10:50 2ft 4s 4s 11 13 mph 1013.4mb 81f 80f
9:50 2ft 4s 4s 11 13 mph 1013.5mb 81f 80f
8:50 2ft 6s 4s 11 13 mph 1013.3mb 81f 80f
7:50 2ft 5s 4s 9 11 mph 1013.1mb 81f 80f
6:50 1.6ft 4s 4s 7 11 mph 1012.6mb 81f 79f
5:50 1.6ft 4s 4s 7 9 mph 1012mb 81f 78f
4:50 1.6ft 6s 4s 7 9 mph 1011.4mb 81f 78f
3:50 1.6ft 4s 4s 9 11 mph 1011.1mb 81f 78f
2:50 1.6ft 4s 4s 7 9 mph 1011.1mb 81f 78f
1:50 1.6ft 4s 4s 9 11 mph 1011.2mb 81f 79f
12:50 1.6ft 6s 4s 9 11 mph 1011.7mb 81f 79f
jue 02/23 11:50 1.6ft 6s 4s 11 13 mph 1012.1mb 81f 79f
9:50 1.6ft 6s 5s 7
mph
1012.6mb 81f 80f
8:50 1.6ft 6s 5s 7 9 mph 1012.4mb 81f 80f
7:50 1.6ft 6s 5s 7 9 mph 1011.6mb 81f 79f
6:50 1.6ft 6s 5s 7 9 mph 1011.1mb 81f 79f
5:50 1.6ft 6s 4s 9 11 mph 1010.5mb 81f 79f
4:50 1.6ft 7s 4s 9 11 mph 1010.1mb 81f 80f